Alford, Indiana
Current Conditions -  °F | °C
As of 5:55 AM on Friday 19 Dec 2014 (Local Time) from KDCY Reporting Station
Clear Clear  
Wind Chill: 19°   Ceiling: Unl
Heat Index: 25°   Visibility: 7mi
Dew Point: 22°   Wind: 5mph
Humidity: 87%   Direction: 10°N
Pressure: 30.28"   Gusts: NA
Location:  38.4723°N, 87.3105°W
Report Text: KDCY 191155Z AUTO 01004KT 7SM CLR M04/M06 A3028 RMK AO2 T10401058 11025 21045
Loading
Personal Weather Stations






























Interactive Weather Map New forecast layout! Learn more

10-Day Weather Forecast

Advertisements
Track Severe Weather on mobile